Tropical Cyclones
[Index]
Main Index Home Page Stock Weather Photos Extreme Storms Discussion Storm News and Storm Chasing Reports Tropical Cyclones / Hurricanes / Typhoons Weather Data and Links Wild Fires / Bushfires Weather Observation Techniques Weather Picture Catalogue Tornado Pictures and Reports Stock Video Footage and DVDs for sale
Season 1999-2000 Tropical Cyclone VAUGHAN Track Map
Season 1999-2000 Summaries (Operational Data): [AU] [SIO] [SPAC] [SH]
<<- Previous TC | 1999-2000 Season | Next TC ->>

click for intensity scale information  Lat/long Grid: Show Hide

 Date Labels: Show Hide

Operational Tropical Cyclone Data : JTWC Advisories

Name: VAUGHAN
Number: 0023

28 Mar 2000 18:00 UTC to 07 Apr 2000 00:00 UTC

    date/time    lat    long     hPa   cat  kts
2000-03-28 18   20.0   168.0    1007         20          
2000-03-29 06   20.0   169.0    1005         25          
2000-03-29 18   20.0   168.0    1005         25          
2000-03-30 00   20.7   167.7    1005         25          
2000-03-30 06   21.0   168.0    1002         30          
2000-03-30 12   20.0   168.0    1002         30          
2000-03-30 18   20.0   167.5    1003         25          
2000-03-31 18   18.5   166.6    1004         25          
2000-04-01 06   18.0   166.1    1007         20          
2000-04-02 21   15.0   160.0    1004         30          
2000-04-02 21   15.2   159.5     999    1    40          
2000-04-03 00   15.1   159.0     999    1    40          
2000-04-03 06   14.8   158.3     999    1    40          
2000-04-03 12   14.4   157.6     999    1    40          
2000-04-03 18   14.0   156.0     995    1    40          
2000-04-04 00   13.5   155.0     985    2    50          
2000-04-04 06   13.5   154.0     985    2    50          
2000-04-04 12   13.4   153.0     985    2    50          
2000-04-04 18   13.1   151.3     980    2    55          
2000-04-05 00   14.0   151.0     980    2    55          
2000-04-05 06   14.7   150.1     980    2    55          
2000-04-05 12   15.2   149.4     980    2    55          
2000-04-05 18   15.2   148.0     975    2    60          
2000-04-06 01   15.3   147.3     980    2    55          
2000-04-06 06   15.0   147.5     998         30          
2000-04-06 12   15.6   146.0                             
2000-04-06 19   15.4   146.3    1005         20          
2000-04-07 00   16.4   143.8                             
Winds are 10-min average.

Tropical cyclone tracks developed by Michael Bath using operational warnings and advisories and Google Maps.


[Australian Severe Weather index] [Copyright Notice] [Email Contacts] [Search This Site] [Privacy Policy]
Document: tropical_cyclone_vaughan.htm Updated: 4 September 2016